Time;durP1;ratioP1;P1;durP2;ratioP2;P2;SDS_P1;SDS_P2;PMS_P1;PMS_P2;Temp;Humidity;BMP_temperature;BMP_pressure;BME280_temperature;BME280_humidity;BME280_pressure;Samples;Min_cycle;Max_cycle;Signal;HPM_P1;HPM_P2
2022/07/10 00:02:02;;;;;;;20.45;15.70;;;;;;;16.16;74.98;95086.94;5060527;28;20078;-85
2022/07/10 00:04:27;;;;;;;18.88;15.98;;;;;;;16.34;74.68;95119.06;5051828;28;20032;-84
2022/07/10 00:06:55;;;;;;;20.42;15.15;;;;;;;16.01;74.56;95049.13;5056829;28;20043;-84
2022/07/10 00:09:22;;;;;;;25.75;16.55;;;;;;;14.12;74.43;94777.34;5062402;28;20150;-84
2022/07/10 00:11:47;;;;;;;24.60;16.17;;;;;;;15.79;75.19;95047.31;5061584;28;20019;-86
2022/07/10 00:14:13;;;;;;;20.48;15.88;;;;;;;15.45;74.84;94979.22;5064514;28;20545;-85
2022/07/10 00:16:38;;;;;;;18.58;15.98;;;;;;;15.95;75.25;95063.72;5071109;28;20122;-84
2022/07/10 00:19:04;;;;;;;19.13;15.88;;;;;;;15.76;75.12;95053.28;5062711;28;20078;-84
2022/07/10 00:21:29;;;;;;;19.33;16.23;;;;;;;15.13;75.38;94939.47;5052566;28;20036;-84
2022/07/10 00:23:55;;;;;;;18.00;15.65;;;;;;;15.33;75.19;94957.63;5062602;28;20588;-84
2022/07/10 00:26:20;;;;;;;21.33;16.45;;;;;;;15.89;75.35;95041.66;5059358;28;20025;-85
2022/07/10 00:28:45;;;;;;;25.23;16.50;;;;;;;16.25;74.85;95078.91;5062971;28;20152;-85
2022/07/10 00:31:11;;;;;;;22.50;15.60;;;;;;;16.40;75.01;95120.53;5080549;28;20039;-85
2022/07/10 00:33:37;;;;;;;21.88;16.58;;;;;;;15.93;75.28;95047.19;5080848;28;20386;-85
2022/07/10 00:36:05;;;;;;;21.77;16.40;;;;;;;16.25;75.14;95099.56;5062776;28;20028;-85
2022/07/10 00:38:30;;;;;;;23.00;16.42;;;;;;;16.14;75.72;95088.34;5062594;28;20032;-85
2022/07/10 00:40:56;;;;;;;19.60;15.73;;;;;;;16.48;75.22;95130.44;5062111;28;20081;-85
2022/07/10 00:43:21;;;;;;;19.63;15.77;;;;;;;16.23;75.49;95112.44;5057818;28;20040;-85
2022/07/10 00:45:48;;;;;;;18.25;15.38;;;;;;;15.88;75.74;95050.78;5066847;28;20036;-85
2022/07/10 00:48:14;;;;;;;19.65;17.42;;;;;;;15.56;75.96;95022.53;5062380;28;20035;-85
2022/07/10 00:50:41;;;;;;;36.40;16.95;;;;;;;14.67;76.48;94903.25;5053240;28;20042;-85
2022/07/10 00:53:07;;;;;;;19.13;16.90;;;;;;;15.48;76.72;95025.94;5062048;28;20047;-85
2022/07/10 00:55:35;;;;;;;24.90;16.60;;;;;;;15.53;76.59;95041.84;5051474;28;20041;-85
2022/07/10 00:58:01;;;;;;;18.52;16.10;;;;;;;15.98;77.30;95117.38;5077217;28;20056;-85
2022/07/10 01:00:27;;;;;;;23.90;17.35;;;;;;;16.07;77.11;95114.75;5061231;28;20032;-85
2022/07/10 01:02:53;;;;;;;22.40;16.13;;;;;;;15.52;76.49;95012.72;5079679;28;20051;-85
2022/07/10 01:05:19;;;;;;;19.45;15.48;;;;;;;16.02;76.14;95072.09;5080489;28;20802;-85
2022/07/10 01:07:44;;;;;;;23.58;16.17;;;;;;;15.82;75.82;95033.31;5058831;28;20036;-85
2022/07/10 01:10:10;;;;;;;29.15;16.85;;;;;;;15.56;76.12;95013.72;5051154;28;20430;-85
2022/07/10 01:12:37;;;;;;;20.25;16.92;;;;;;;15.19;75.90;94962.28;5060932;28;20123;-85
2022/07/10 01:15:03;;;;;;;19.90;16.63;;;;;;;16.01;75.84;95081.22;5063032;28;20032;-85
2022/07/10 01:17:29;;;;;;;19.75;15.13;;;;;;;16.10;75.90;95103.41;5061626;28;20028;-85
2022/07/10 01:19:55;;;;;;;19.58;15.88;;;;;;;15.81;76.23;95061.16;5061543;28;20042;-85
2022/07/10 01:22:21;;;;;;;16.75;14.90;;;;;;;15.90;76.37;95091.38;5053572;28;20036;-85
2022/07/10 01:24:46;;;;;;;18.25;14.80;;;;;;;15.09;76.52;94981.25;5069060;28;20505;-85
2022/07/10 01:27:12;;;;;;;18.23;16.15;;;;;;;15.11;76.77;94984.38;5061151;28;20036;-85
2022/07/10 01:29:37;;;;;;;20.42;15.85;;;;;;;15.87;76.42;95083.97;5061430;28;20106;-85
2022/07/10 01:32:03;;;;;;;17.88;14.63;;;;;;;16.00;76.38;95084.97;5048259;28;20140;-85
2022/07/10 01:34:29;;;;;;;18.27;15.82;;;;;;;15.26;76.28;94986.66;5061036;28;20062;-86
2022/07/10 01:36:54;;;;;;;20.67;15.38;;;;;;;15.36;76.77;95015.78;5061210;28;20086;-85
2022/07/10 01:39:20;;;;;;;24.15;15.55;;;;;;;15.19;77.15;94993.53;5073846;28;20036;-85
2022/07/10 01:41:45;;;;;;;20.63;15.02;;;;;;;15.63;77.20;95056.84;5059271;28;20032;-85
2022/07/10 01:44:11;;;;;;;21.17;15.93;;;;;;;15.19;77.14;94990.84;5054136;28;20040;-85
2022/07/10 01:46:46;;;;;;;21.02;16.33;;;;;;;15.04;77.33;94986.69;5047666;28;20600;-85
2022/07/10 01:49:13;;;;;;;18.98;15.52;;;;;;;15.36;77.44;95018.47;5069404;28;20055;-85
2022/07/10 01:51:38;;;;;;;19.60;15.65;;;;;;;15.87;77.35;95083.22;5059816;28;20211;-85
2022/07/10 01:54:04;;;;;;;19.48;16.33;;;;;;;15.17;76.93;94975.16;5059557;28;20107;-85
2022/07/10 01:56:29;;;;;;;18.45;15.80;;;;;;;15.34;76.90;94998.47;5061071;28;20229;-85
2022/07/10 01:58:55;;;;;;;20.15;15.85;;;;;;;15.46;76.90;95030.78;5057203;28;20132;-85
2022/07/10 02:01:20;;;;;;;20.25;15.13;;;;;;;15.06;77.24;94963.16;5057042;28;20040;-85
2022/07/10 02:06:29;;;;;;;21.17;14.80;;;;;;;15.76;76.62;95042.56;5058940;28;20074;-85
2022/07/10 02:08:55;;;;;;;17.90;15.07;;;;;;;15.32;76.09;94965.97;5040657;28;20072;-85
2022/07/10 02:11:20;;;;;;;16.83;14.73;;;;;;;13.50;76.14;94696.53;5057490;28;20099;-85
2022/07/10 02:13:46;;;;;;;20.38;14.77;;;;;;;14.39;75.99;94821.78;5060046;28;20403;-85
2022/07/10 02:16:11;;;;;;;19.98;14.82;;;;;;;15.79;76.41;95050.75;5071071;28;20068;-85
2022/07/10 02:18:38;;;;;;;19.00;14.70;;;;;;;15.34;76.06;94987.78;5053878;28;20094;-85
2022/07/10 02:21:04;;;;;;;19.80;14.45;;;;;;;15.53;76.75;95033.00;5055382;28;20528;-85
2022/07/10 02:23:30;;;;;;;18.80;16.35;;;;;;;15.76;76.99;95072.78;5057801;28;20063;-85
2022/07/10 02:25:55;;;;;;;17.15;14.75;;;;;;;15.03;76.62;94951.19;5059205;28;20025;-85
2022/07/10 02:28:21;;;;;;;22.83;14.55;;;;;;;15.78;76.31;95062.56;5057497;28;20036;-85
2022/07/10 02:30:46;;;;;;;25.38;14.73;;;;;;;15.58;76.46;95052.41;5058102;28;20036;-85
2022/07/10 02:33:11;;;;;;;20.17;14.48;;;;;;;15.70;76.50;95057.19;5053452;28;20047;-85
2022/07/10 02:35:37;;;;;;;20.17;15.07;;;;;;;13.74;76.43;94752.97;5054792;28;20506;-85
2022/07/10 02:38:02;;;;;;;16.83;15.02;;;;;;;14.73;76.78;94911.13;5057931;28;20036;-85
2022/07/10 02:40:28;;;;;;;21.70;15.50;;;;;;;15.13;76.93;94984.88;5045945;28;20037;-85
2022/07/10 02:42:53;;;;;;;20.33;15.50;;;;;;;14.66;76.89;94925.69;5052031;28;20115;-85
2022/07/10 02:45:19;;;;;;;18.02;15.57;;;;;;;15.22;77.00;94991.06;5056972;28;20082;-85
2022/07/10 02:47:44;;;;;;;17.92;14.75;;;;;;;15.35;76.82;95030.25;5058234;28;20036;-85
2022/07/10 02:50:10;;;;;;;19.52;15.00;;;;;;;15.35;77.29;95048.94;5055487;28;20037;-85
2022/07/10 02:52:35;;;;;;;17.13;14.70;;;;;;;15.36;77.34;95045.19;5055610;28;20559;-85
2022/07/10 02:55:00;;;;;;;25.70;15.85;;;;;;;15.55;77.53;95085.09;5056169;28;20121;-85
2022/07/10 02:57:26;;;;;;;18.02;15.13;;;;;;;12.76;77.12;94669.41;5060598;28;20148;-85
2022/07/10 02:59:51;;;;;;;20.55;14.60;;;;;;;14.91;77.57;94990.25;5074664;28;20143;-85
2022/07/10 03:02:17;;;;;;;18.92;14.98;;;;;;;15.25;77.38;95046.56;5057458;28;20115;-85
2022/07/10 03:04:42;;;;;;;19.27;15.68;;;;;;;15.38;77.10;95059.03;5047977;28;20043;-85
2022/07/10 03:07:08;;;;;;;16.95;14.95;;;;;;;15.33;77.22;95051.13;5079535;28;20093;-85
2022/07/10 03:09:34;;;;;;;20.77;14.57;;;;;;;15.72;76.76;95095.06;5061205;28;20063;-85
2022/07/10 03:12:00;;;;;;;16.35;13.98;;;;;;;15.26;76.52;95029.41;5060182;28;20052;-85
2022/07/10 03:14:25;;;;;;;19.42;15.50;;;;;;;14.97;76.89;94999.69;5074611;28;20047;-85
2022/07/10 03:16:50;;;;;;;20.77;16.02;;;;;;;15.40;76.81;95056.06;5060711;28;20581;-85
2022/07/10 03:19:16;;;;;;;22.52;15.23;;;;;;;15.33;76.50;95045.78;5060295;28;20043;-84
2022/07/10 03:21:41;;;;;;;18.95;15.18;;;;;;;15.43;76.59;95074.94;5059885;28;20430;-85
2022/07/10 03:24:07;;;;;;;17.42;14.02;;;;;;;15.48;76.93;95086.59;5059805;28;20040;-85
2022/07/10 03:26:32;;;;;;;18.70;13.40;;;;;;;15.21;76.76;95042.91;5075063;28;20035;-85
2022/07/10 03:28:58;;;;;;;24.88;14.40;;;;;;;15.41;76.62;95069.09;5049484;28;20040;-85
2022/07/10 03:31:23;;;;;;;16.15;13.30;;;;;;;15.71;76.39;95101.53;5079253;28;20036;-85
2022/07/10 03:33:49;;;;;;;14.70;13.20;;;;;;;15.15;76.04;95001.38;5048814;28;20129;-85
2022/07/10 03:36:14;;;;;;;25.63;13.55;;;;;;;14.79;76.39;94960.66;5063183;28;20175;-85
2022/07/10 03:38:40;;;;;;;18.35;13.25;;;;;;;15.85;75.60;95098.75;5060897;28;20032;-85
2022/07/10 03:41:06;;;;;;;21.33;13.73;;;;;;;15.54;76.36;95082.72;5063516;28;20084;-85
2022/07/10 03:43:31;;;;;;;21.90;13.40;;;;;;;15.37;75.77;95028.06;5062993;28;20028;-84
2022/07/10 03:45:57;;;;;;;19.80;14.38;;;;;;;15.01;75.88;94972.09;5063359;28;20515;-85
2022/07/10 03:48:23;;;;;;;16.88;13.25;;;;;;;15.13;76.51;95019.59;5063361;28;20047;-85
2022/07/10 03:50:52;;;;;;;20.35;13.00;;;;;;;15.58;76.46;95087.16;5088046;28;20031;-85
2022/07/10 03:53:18;;;;;;;22.85;14.32;;;;;;;15.69;76.79;95098.38;5089838;28;20115;-85
2022/07/10 03:55:44;;;;;;;19.48;14.48;;;;;;;15.62;77.04;95085.44;5062650;28;20038;-85
2022/07/10 03:58:10;;;;;;;20.52;13.95;;;;;;;13.82;76.32;94791.41;5068398;28;20043;-85
2022/07/10 04:00:38;;;;;;;17.55;13.43;;;;;;;15.26;76.13;95012.59;5063580;28;20048;-85
2022/07/10 04:03:05;;;;;;;15.63;13.45;;;;;;;15.47;76.20;95035.03;5059504;28;20031;-85
2022/07/10 04:05:31;;;;;;;26.38;13.75;;;;;;;15.88;75.92;95090.09;5059692;28;20037;-85
2022/07/10 04:07:58;;;;;;;18.13;13.32;;;;;;;15.90;76.15;95095.94;5056591;28;20037;-85
2022/07/10 04:10:25;;;;;;;19.58;13.63;;;;;;;15.14;75.95;94969.63;5056905;28;20135;-85
2022/07/10 04:12:51;;;;;;;20.30;14.60;;;;;;;15.53;76.72;95057.06;5054139;28;20025;-85
2022/07/10 04:15:17;;;;;;;18.33;14.02;;;;;;;15.83;76.25;95089.16;5060459;28;20036;-84
2022/07/10 04:17:42;;;;;;;22.40;12.88;;;;;;;15.33;76.54;95005.72;5073666;28;20033;-85
2022/07/10 04:20:08;;;;;;;14.48;12.95;;;;;;;15.78;76.06;95077.81;5065050;28;20036;-85
2022/07/10 04:22:34;;;;;;;16.92;13.13;;;;;;;15.70;76.20;95060.66;5066581;28;20523;-84
2022/07/10 04:24:59;;;;;;;14.45;12.60;;;;;;;15.33;76.26;95000.38;5046733;28;20513;-85
2022/07/10 04:27:25;;;;;;;21.13;13.65;;;;;;;15.98;75.77;95074.59;5060789;28;20036;-85
2022/07/10 04:29:51;;;;;;;21.83;13.35;;;;;;;15.29;74.94;94931.84;5056882;28;20036;-85
2022/07/10 04:32:16;;;;;;;18.73;12.57;;;;;;;15.62;74.57;94985.75;5059085;28;20288;-85
2022/07/10 04:34:42;;;;;;;18.92;13.07;;;;;;;15.79;74.59;95034.72;5059537;28;20048;-85
2022/07/10 04:37:08;;;;;;;24.13;13.15;;;;;;;15.25;74.80;94941.56;5060759;28;20036;-85
2022/07/10 04:39:34;;;;;;;21.17;12.35;;;;;;;15.35;74.94;94976.81;5058307;28;20178;-85
2022/07/10 04:42:01;;;;;;;18.95;13.20;;;;;;;15.70;75.14;95022.44;5059686;28;20803;-85
2022/07/10 04:44:26;;;;;;;14.80;13.20;;;;;;;15.53;75.19;94996.41;5060490;28;20542;-85
2022/07/10 04:46:51;;;;;;;18.95;12.90;;;;;;;15.79;74.88;95041.97;5061440;28;20040;-85
2022/07/10 04:49:17;;;;;;;16.17;12.52;;;;;;;15.74;75.24;95028.72;5042375;28;20147;-85
2022/07/10 04:51:42;;;;;;;17.80;12.82;;;;;;;15.73;75.24;95021.78;5057290;28;20210;-85
2022/07/10 04:54:08;;;;;;;19.30;11.68;;;;;;;15.72;74.90;95022.88;5059474;28;20040;-85
2022/07/10 04:56:33;;;;;;;18.23;12.57;;;;;;;16.13;74.98;95073.38;5060873;28;20064;-85
2022/07/10 04:58:59;;;;;;;15.10;12.20;;;;;;;16.20;74.75;95057.66;5058279;28;20044;-85
2022/07/10 05:01:24;;;;;;;18.48;12.80;;;;;;;16.26;74.14;95077.03;5058097;28;20487;-85
2022/07/10 05:03:50;;;;;;;17.95;11.75;;;;;;;15.77;74.02;94994.16;5059673;28;20029;-85
2022/07/10 05:06:15;;;;;;;14.00;12.00;;;;;;;16.26;73.81;95067.09;5059065;28;20472;-85
2022/07/10 05:08:41;;;;;;;14.02;11.95;;;;;;;16.20;73.49;95041.59;5067566;28;20028;-84
2022/07/10 05:11:06;;;;;;;16.02;11.52;;;;;;;16.06;73.71;95049.75;5065996;28;20032;-84
2022/07/10 05:13:31;;;;;;;18.52;11.25;;;;;;;16.00;73.64;95048.31;5058497;28;20044;-85
2022/07/10 05:15:57;;;;;;;15.57;11.45;;;;;;;15.50;73.77;94969.47;5058359;28;20032;-85
2022/07/10 05:18:22;;;;;;;14.25;11.32;;;;;;;15.42;74.03;94953.09;5060860;28;20445;-86
2022/07/10 05:20:49;;;;;;;17.20;11.25;;;;;;;15.73;74.09;94992.38;5060082;28;20066;-85
2022/07/10 05:23:15;;;;;;;16.52;11.30;;;;;;;15.81;73.71;94992.41;5055626;28;20127;-86
2022/07/10 05:25:41;;;;;;;15.02;10.77;;;;;;;15.61;73.72;94949.44;5059454;28;20029;-85
2022/07/10 05:28:06;;;;;;;14.02;11.48;;;;;;;15.35;73.73;94915.34;5055939;28;20039;-85
2022/07/10 05:30:32;;;;;;;14.00;10.32;;;;;;;15.96;73.83;95007.25;5055734;28;20029;-85
2022/07/10 05:32:58;;;;;;;16.10;11.10;;;;;;;16.46;72.87;95071.88;5058228;28;20028;-84
2022/07/10 05:35:24;;;;;;;17.00;11.07;;;;;;;15.75;73.22;94972.28;5055579;28;20045;-85
2022/07/10 05:37:49;;;;;;;19.70;10.57;;;;;;;16.25;72.90;95040.69;5062852;28;20032;-87
2022/07/10 05:40:15;;;;;;;15.88;11.73;;;;;;;16.53;72.87;95071.41;5048350;28;20117;-84
2022/07/10 05:42:40;;;;;;;19.27;10.70;;;;;;;16.04;72.70;94990.41;5054535;28;20027;-84
2022/07/10 05:45:06;;;;;;;15.25;9.68;;;;;;;16.26;72.34;95035.00;5057935;28;20032;-85
2022/07/10 05:47:33;;;;;;;16.08;11.10;;;;;;;15.93;73.02;94973.09;5065526;28;20038;-85
2022/07/10 05:49:58;;;;;;;12.15;10.93;;;;;;;16.15;73.16;94986.38;5057668;28;20387;-85
2022/07/10 05:52:24;;;;;;;13.15;10.55;;;;;;;15.90;72.52;94957.69;5054520;28;20086;-85
2022/07/10 05:54:50;;;;;;;13.35;10.02;;;;;;;16.45;72.45;95022.13;5053800;28;20040;-85
2022/07/10 05:57:16;;;;;;;15.55;10.75;;;;;;;16.16;71.04;94982.59;5054030;28;20395;-85
2022/07/10 05:59:41;;;;;;;17.50;10.32;;;;;;;16.42;71.38;95049.50;5069419;28;20055;-85
2022/07/10 06:02:07;;;;;;;20.30;10.88;;;;;;;16.39;71.47;95025.28;5063270;28;20473;-85
2022/07/10 06:04:33;;;;;;;16.15;9.82;;;;;;;16.09;71.69;94966.22;5062671;28;20466;-85
2022/07/10 06:06:59;;;;;;;12.55;9.95;;;;;;;15.87;71.27;94920.84;5061125;28;20138;-85
2022/07/10 06:09:24;;;;;;;12.93;9.13;;;;;;;16.61;70.79;95041.22;5080146;28;20044;-85
2022/07/10 06:11:50;;;;;;;14.38;9.98;;;;;;;15.91;71.23;94918.34;5056899;28;20616;-85
2022/07/10 06:14:16;;;;;;;16.30;9.15;;;;;;;16.80;70.88;95035.53;5060046;28;20564;-85
2022/07/10 06:16:41;;;;;;;16.70;9.70;;;;;;;17.06;70.21;95065.78;5051128;28;20042;-85
2022/07/10 06:19:07;;;;;;;15.05;9.18;;;;;;;16.29;70.67;94945.28;5061168;28;20035;-85
2022/07/10 06:21:32;;;;;;;15.40;8.60;;;;;;;16.66;70.09;94978.69;5078938;28;20039;-85
2022/07/10 06:23:58;;;;;;;16.27;8.18;;;;;;;16.10;68.91;94898.22;5073282;28;20085;-85
2022/07/10 06:26:24;;;;;;;11.57;8.57;;;;;;;16.30;68.58;94928.94;5072484;28;20040;-85
2022/07/10 06:28:50;;;;;;;11.55;8.55;;;;;;;16.95;68.84;95033.16;5056551;28;20126;-85
2022/07/10 06:31:15;;;;;;;11.40;7.72;;;;;;;16.13;68.32;94910.97;5060660;28;20172;-86
2022/07/10 06:33:41;;;;;;;11.88;8.57;;;;;;;16.74;68.63;94981.38;5062434;28;20097;-85
2022/07/10 06:36:07;;;;;;;10.40;8.07;;;;;;;17.22;68.95;95061.53;5059842;28;20047;-85
2022/07/10 06:38:32;;;;;;;10.95;7.38;;;;;;;17.40;68.71;95054.22;5060679;28;20040;-85
2022/07/10 06:40:58;;;;;;;8.68;6.75;;;;;;;17.43;67.01;95053.59;5060595;28;20038;-85
2022/07/10 06:43:23;;;;;;;14.95;7.60;;;;;;;15.37;66.66;94747.50;5060146;28;20081;-85
2022/07/10 06:45:49;;;;;;;12.05;6.63;;;;;;;17.30;66.63;95052.69;5073640;28;20051;-85
2022/07/10 06:48:15;;;;;;;11.57;7.10;;;;;;;17.12;66.88;94989.50;5077681;28;20251;-86
2022/07/10 06:50:41;;;;;;;11.65;7.43;;;;;;;17.12;66.35;95000.22;5061933;28;20270;-85
2022/07/10 06:53:06;;;;;;;12.90;6.88;;;;;;;17.57;66.57;95034.63;5060300;28;20415;-85
2022/07/10 06:55:33;;;;;;;16.65;7.50;;;;;;;17.49;66.40;95019.34;5081720;28;20041;-84
2022/07/10 06:57:59;;;;;;;8.50;7.35;;;;;;;17.35;66.76;94963.25;5073976;28;20044;-84
2022/07/10 07:00:25;;;;;;;10.63;6.88;;;;;;;17.64;66.38;94992.03;5062410;28;20536;-85
2022/07/10 07:02:51;;;;;;;13.85;7.47;;;;;;;17.49;65.14;94955.78;5064866;28;20071;-85
2022/07/10 07:05:16;;;;;;;9.77;6.95;;;;;;;18.27;65.46;95054.72;5066345;28;20056;-85
2022/07/10 07:07:42;;;;;;;11.05;6.78;;;;;;;18.04;64.38;95000.53;5065064;28;20104;-86
2022/07/10 07:10:08;;;;;;;16.48;7.22;;;;;;;18.54;65.11;95050.75;5056588;28;20044;-85
2022/07/10 07:12:34;;;;;;;11.13;6.35;;;;;;;16.77;63.98;94800.53;5075399;28;20047;-86
2022/07/10 07:14:59;;;;;;;12.65;6.53;;;;;;;17.70;63.71;94921.81;5064608;28;20044;-85
2022/07/10 07:17:33;;;;;;;11.55;6.75;;;;;;;17.28;64.15;94847.72;5066090;28;20038;-85
2022/07/10 07:25:27;;;;;;;15.27;6.82;;;;;;;18.55;63.96;95053.09;5082490;28;20128;-84
2022/07/10 07:27:53;;;;;;;13.85;7.50;;;;;;;17.84;64.35;94934.22;5070720;28;20039;-84
2022/07/10 07:30:19;;;;;;;10.75;6.32;;;;;;;18.46;63.63;95038.97;5068429;28;20342;-85
2022/07/10 07:32:46;;;;;;;9.15;6.53;;;;;;;18.50;63.83;95029.94;5054782;28;20438;-85
2022/07/10 07:35:13;;;;;;;18.05;8.93;;;;;;;17.92;64.67;94971.72;5063128;28;20039;-85
2022/07/10 07:37:40;;;;;;;11.10;7.75;;;;;;;17.52;64.47;94890.81;5064880;28;20039;-85
2022/07/10 07:40:07;;;;;;;10.75;6.88;;;;;;;18.70;64.59;95041.00;5064495;28;20493;-85
2022/07/10 07:42:33;;;;;;;11.55;6.70;;;;;;;17.65;64.07;94868.38;5053307;28;20028;-85
2022/07/10 07:44:58;;;;;;;11.55;7.13;;;;;;;18.36;64.79;94970.31;5064443;28;20028;-84
2022/07/10 07:47:24;;;;;;;8.10;5.80;;;;;;;18.92;64.13;95035.31;5066007;28;20047;-85
2022/07/10 07:49:50;;;;;;;12.82;7.10;;;;;;;18.47;62.63;94944.63;5061849;28;20032;-84
2022/07/10 07:52:15;;;;;;;17.75;7.20;;;;;;;18.76;63.35;94978.72;5066398;28;20592;-84
2022/07/10 07:54:40;;;;;;;12.30;5.75;;;;;;;18.75;61.83;94950.28;5067599;28;20127;-84
2022/07/10 07:57:06;;;;;;;19.00;5.38;;;;;;;19.07;60.95;94986.31;5098763;28;20032;-84
2022/07/10 07:59:32;;;;;;;11.68;5.75;;;;;;;19.29;59.73;95022.81;5077614;28;20066;-85
2022/07/10 08:01:57;;;;;;;11.32;5.15;;;;;;;18.50;58.88;94881.44;5058482;28;20028;-85
2022/07/10 08:04:23;;;;;;;6.57;4.53;;;;;;;18.36;57.59;94857.56;5067605;28;20040;-85
2022/07/10 08:06:51;;;;;;;12.85;4.90;;;;;;;18.97;58.50;94938.38;5070908;28;20096;-85
2022/07/10 08:09:20;;;;;;;8.93;4.85;;;;;;;18.87;57.55;94922.66;5076731;28;20040;-85
2022/07/10 08:11:46;;;;;;;8.23;5.35;;;;;;;19.52;58.85;95029.41;5092768;28;20028;-85
2022/07/10 08:14:12;;;;;;;9.73;5.45;;;;;;;19.03;58.27;94926.28;5072970;28;20040;-85
2022/07/10 08:16:38;;;;;;;9.65;5.30;;;;;;;19.29;58.03;94952.91;5070895;28;20028;-85
2022/07/10 08:19:04;;;;;;;6.55;4.38;;;;;;;19.48;56.60;94992.72;5058988;28;20039;-85
2022/07/10 08:21:30;;;;;;;9.82;4.18;;;;;;;19.31;56.31;94947.97;5068535;28;20024;-85
2022/07/10 08:23:55;;;;;;;6.30;4.82;;;;;;;19.68;56.30;94994.56;5065790;28;20032;-84
2022/07/10 08:26:21;;;;;;;8.40;4.82;;;;;;;19.71;56.73;94985.03;5073579;28;20041;-85
2022/07/10 08:28:46;;;;;;;8.93;4.22;;;;;;;19.49;55.75;94959.34;5091773;28;20032;-85
2022/07/10 08:31:12;;;;;;;7.50;4.50;;;;;;;19.72;55.65;94979.31;5089929;28;20115;-85
2022/07/10 08:33:37;;;;;;;6.68;4.30;;;;;;;19.90;55.09;94987.97;5100461;28;20111;-85
2022/07/10 08:36:04;;;;;;;7.95;4.72;;;;;;;20.01;54.75;95018.66;5088917;28;20027;-85
2022/07/10 08:38:29;;;;;;;8.75;5.00;;;;;;;19.76;54.69;94966.00;5077729;28;20031;-85
2022/07/10 08:40:58;;;;;;;10.50;4.22;;;;;;;19.89;53.82;94968.34;5081754;28;20027;-85
2022/07/10 08:43:24;;;;;;;5.63;4.30;;;;;;;20.26;54.07;95027.53;5081556;28;20032;-85
2022/07/10 08:45:53;;;;;;;7.50;4.10;;;;;;;19.85;54.54;94945.91;5074513;28;20027;-85
2022/07/10 08:48:24;;;;;;;6.00;4.65;;;;;;;20.34;54.89;94983.56;5083556;28;20032;-85
2022/07/10 08:50:53;;;;;;;6.68;3.75;;;;;;;20.49;53.44;95028.66;5061874;28;20086;-85
2022/07/10 08:53:29;;;;;;;6.60;3.85;;;;;;;20.42;53.10;94988.03;5073636;28;20053;-85
2022/07/10 08:55:55;;;;;;;8.75;4.63;;;;;;;20.28;52.63;94958.75;5089247;28;20047;-84
2022/07/10 08:58:22;;;;;;;5.63;4.18;;;;;;;20.50;53.48;94979.03;5080244;28;20051;-85
2022/07/10 09:00:47;;;;;;;6.85;4.22;;;;;;;20.38;52.03;94949.44;5101012;28;20032;-85
2022/07/10 09:03:13;;;;;;;5.88;4.28;;;;;;;20.45;50.89;94960.41;5080127;28;20035;-85
2022/07/10 09:05:38;;;;;;;4.65;3.90;;;;;;;19.49;51.89;94765.72;5085202;28;20034;-85
2022/07/10 09:08:20;;;;;;;8.32;4.22;;;;;;;20.28;51.34;94941.81;5084682;28;20036;-85
2022/07/10 09:10:50;;;;;;;8.45;4.00;;;;;;;18.50;51.92;94637.88;5083207;28;20123;-85
2022/07/10 09:13:16;;;;;;;8.38;4.10;;;;;;;21.11;51.92;95006.56;5079358;28;20123;-85
2022/07/10 09:15:49;;;;;;;9.75;4.80;;;;;;;20.92;51.72;95011.00;5080466;28;20059;-85
2022/07/10 09:18:18;;;;;;;10.45;4.65;;;;;;;20.96;52.23;94974.97;5079754;28;20032;-85
2022/07/10 09:20:46;;;;;;;5.93;3.80;;;;;;;20.90;51.11;94962.88;5107753;28;20024;-84
2022/07/10 09:23:17;;;;;;;7.38;4.03;;;;;;;21.10;50.45;94988.03;5079463;28;20611;-85
2022/07/10 09:25:43;;;;;;;13.15;5.57;;;;;;;21.34;50.59;95000.66;5095792;28;20268;-85
2022/07/10 09:28:09;;;;;;;8.88;4.70;;;;;;;21.15;50.30;94966.22;5077368;28;20114;-85
2022/07/10 09:30:36;;;;;;;5.88;4.18;;;;;;;20.31;51.00;94814.56;5085273;28;20042;-85
2022/07/10 09:33:25;;;;;;;5.55;3.60;;;;;;;21.71;50.25;94996.59;5075342;28;20620;-85
2022/07/10 09:36:12;;;;;;;9.10;4.13;;;;;;;21.73;49.05;94999.72;5068607;28;20040;-85
2022/07/10 09:38:43;;;;;;;5.40;3.85;;;;;;;21.81;49.48;94992.59;5054508;28;20031;-85
2022/07/10 09:41:22;;;;;;;12.85;4.30;;;;;;;21.90;49.29;94998.56;5075537;28;20028;-85
2022/07/10 09:43:50;;;;;;;10.93;4.90;;;;;;;21.82;49.38;94991.44;5087714;28;20088;-85
2022/07/10 09:46:18;;;;;;;10.23;4.38;;;;;;;21.50;49.80;94958.28;5074757;28;20032;-85
2022/07/10 09:48:43;;;;;;;9.82;3.72;;;;;;;21.52;49.56;94972.19;5077744;28;20050;-85
2022/07/10 09:51:10;;;;;;;9.20;3.88;;;;;;;21.79;48.84;95005.66;5054644;28;20036;-85
2022/07/10 09:53:44;;;;;;;29.48;4.93;;;;;;;21.83;48.35;94930.91;5065020;28;20036;-84
2022/07/10 09:56:11;;;;;;;4.97;3.30;;;;;;;23.07;46.60;94988.47;5083284;28;20103;-85
2022/07/10 09:58:37;;;;;;;4.68;3.10;;;;;;;23.85;43.08;94981.78;5066139;28;20056;-85
2022/07/10 10:01:05;;;;;;;5.07;2.90;;;;;;;24.90;41.11;94967.44;5076753;28;20376;-85
2022/07/10 10:03:36;;;;;;;8.85;2.75;;;;;;;24.46;40.15;94849.91;5074686;28;20111;-85
2022/07/10 10:06:14;;;;;;;7.05;2.83;;;;;;;25.96;38.99;94969.66;5074564;28;20039;-85
2022/07/10 10:09:02;;;;;;;6.90;3.00;;;;;;;25.57;39.29;94896.75;5090397;28;20048;-85
2022/07/10 10:11:31;;;;;;;7.15;3.55;;;;;;;25.06;39.65;94907.53;5077475;28;20044;-85
2022/07/10 10:13:57;;;;;;;11.55;2.60;;;;;;;24.42;41.24;94924.94;5073261;28;20154;-85
2022/07/10 10:16:27;;;;;;;9.20;2.90;;;;;;;23.93;41.52;94919.59;5081936;28;20122;-85
2022/07/10 10:21:39;;;;;;;3.60;2.47;;;;;;;24.65;40.32;94936.47;5090255;28;20579;-85
2022/07/10 10:24:06;;;;;;;11.80;3.00;;;;;;;24.03;39.93;94870.97;5075864;28;20873;-85
2022/07/10 10:26:32;;;;;;;7.47;2.70;;;;;;;23.64;40.20;94807.38;5098111;28;20434;-85
2022/07/10 10:29:00;;;;;;;4.95;3.08;;;;;;;23.30;40.79;94814.56;5073416;28;20028;-85
2022/07/10 10:31:27;;;;;;;6.78;2.78;;;;;;;23.44;42.94;94912.22;5089993;28;20042;-85
2022/07/10 10:33:57;;;;;;;4.93;2.83;;;;;;;23.40;43.66;94981.75;5070245;28;20046;-85
2022/07/10 10:36:36;;;;;;;7.28;2.88;;;;;;;23.21;44.00;94970.94;5077971;28;20040;-85
2022/07/10 10:39:13;;;;;;;6.50;2.67;;;;;;;22.84;44.87;94951.69;5084087;28;20106;-84
2022/07/10 10:41:56;;;;;;;7.43;3.08;;;;;;;22.25;45.17;94888.72;5078931;28;20032;-84
2022/07/10 10:44:24;;;;;;;4.60;2.80;;;;;;;22.22;45.21;94902.13;5075267;28;20040;-85
2022/07/10 10:46:49;;;;;;;7.93;2.92;;;;;;;22.66;45.22;94964.81;5072240;28;20044;-85
2022/07/10 10:49:16;;;;;;;5.85;2.60;;;;;;;22.18;45.11;94890.47;5076023;28;20467;-85
2022/07/10 10:52:04;;;;;;;5.30;3.38;;;;;;;22.61;45.64;94962.38;5083317;28;20047;-84
2022/07/10 10:54:50;;;;;;;10.30;3.13;;;;;;;22.36;45.57;94913.22;5067714;28;20032;-85
2022/07/10 10:57:17;;;;;;;7.82;3.10;;;;;;;22.41;45.31;94871.66;5093829;28;20368;-85
2022/07/10 10:59:46;;;;;;;5.03;2.45;;;;;;;22.91;45.08;94957.22;5077283;28;20071;-85
2022/07/10 11:02:36;;;;;;;5.00;3.22;;;;;;;21.81;44.84;94788.22;5087981;28;20356;-85
2022/07/10 11:05:11;;;;;;;9.02;2.80;;;;;;;23.10;44.71;94946.41;5086231;28;20044;-84
2022/07/10 11:07:55;;;;;;;8.40;3.78;;;;;;;23.34;44.36;94956.13;5081724;28;20557;-85
2022/07/10 11:10:32;;;;;;;4.78;2.45;;;;;;;23.50;42.96;94945.22;5073896;28;20497;-85
2022/07/10 11:13:29;;;;;;;4.63;2.65;;;;;;;23.75;42.82;94941.75;5061967;28;20063;-85
2022/07/10 11:15:57;;;;;;;10.27;3.33;;;;;;;23.56;44.00;94946.47;5044999;28;20085;-85
2022/07/10 11:18:24;;;;;;;7.32;3.05;;;;;;;22.81;45.30;94861.25;5061731;28;20043;-85
2022/07/10 11:20:53;;;;;;;13.85;4.80;;;;;;;23.36;45.63;94943.78;5079834;28;20117;-84
2022/07/10 11:23:46;;;;;;;2.78;2.40;;;;;;;23.57;43.94;94935.28;5069367;28;20118;-85
2022/07/10 11:26:29;;;;;;;5.05;2.60;;;;;;;23.04;43.97;94885.59;5045948;28;20115;-85
2022/07/10 11:28:57;;;;;;;7.03;3.25;;;;;;;22.97;44.70;94896.31;5078853;28;20024;-85
2022/07/10 11:31:24;;;;;;;6.80;3.30;;;;;;;22.74;45.42;94892.78;5060613;28;20043;-85
2022/07/10 11:33:53;;;;;;;9.77;3.00;;;;;;;22.91;44.13;94941.78;5060609;28;20090;-85
2022/07/10 11:36:21;;;;;;;5.30;2.80;;;;;;;22.98;44.18;94900.56;5079791;28;20498;-85